Rovinj, Croatia
Current Conditions -  °F | °C
As of 5:00 AM on Wednesday 26 Nov 2014 (Local Time) from LDPL Reporting Station
Overcast Overcast  
Wind Chill: 55°   Ceiling: 3000
Heat Index: 55°   Visibility: 6mi
Dew Point: 45°   Wind: 5mph
Humidity: 67%   Direction: 50°NE
Pressure: 30.06"   Gusts: NA
Location:  45.09°N, 13.64°E
Report Text: LDPL 260400Z 05004KT 9999 OVC030 13/07 Q1018 NOSIG
Loading
Personal Weather Stations






























Interactive Weather Map New forecast layout! Learn more

10-Day Weather Forecast

Advertisements
Track Severe Weather on mobile